sensor_id;sensor_type;location;lat;lon;timestamp;P1;durP1;ratioP1;P2;durP2;ratioP2
43809;SDS011;29440;48.208;11.162;2024-01-30T00:01:55;9.93;;;5.40;;
43809;SDS011;29440;48.208;11.162;2024-01-30T00:04:21;9.38;;;5.20;;
43809;SDS011;29440;48.208;11.162;2024-01-30T00:06:46;13.48;;;5.28;;
43809;SDS011;29440;48.208;11.162;2024-01-30T00:09:12;9.10;;;5.03;;
43809;SDS011;29440;48.208;11.162;2024-01-30T00:11:38;10.20;;;5.22;;
43809;SDS011;29440;48.208;11.162;2024-01-30T00:14:04;11.48;;;4.63;;
43809;SDS011;29440;48.208;11.162;2024-01-30T00:16:30;10.20;;;5.00;;
43809;SDS011;29440;48.208;11.162;2024-01-30T00:18:56;8.63;;;4.30;;
43809;SDS011;29440;48.208;11.162;2024-01-30T00:21:22;8.63;;;4.68;;
43809;SDS011;29440;48.208;11.162;2024-01-30T00:23:48;8.73;;;4.75;;
43809;SDS011;29440;48.208;11.162;2024-01-30T00:26:14;8.95;;;4.07;;
43809;SDS011;29440;48.208;11.162;2024-01-30T00:28:40;10.27;;;4.70;;
43809;SDS011;29440;48.208;11.162;2024-01-30T00:31:07;9.88;;;4.93;;
43809;SDS011;29440;48.208;11.162;2024-01-30T00:33:32;9.45;;;4.40;;
43809;SDS011;29440;48.208;11.162;2024-01-30T00:35:58;9.85;;;4.85;;
43809;SDS011;29440;48.208;11.162;2024-01-30T00:38:24;9.65;;;4.80;;
43809;SDS011;29440;48.208;11.162;2024-01-30T00:40:50;10.68;;;5.00;;
43809;SDS011;29440;48.208;11.162;2024-01-30T00:43:16;7.85;;;4.43;;
43809;SDS011;29440;48.208;11.162;2024-01-30T00:45:43;8.35;;;5.13;;
43809;SDS011;29440;48.208;11.162;2024-01-30T00:48:09;9.55;;;4.53;;
43809;SDS011;29440;48.208;11.162;2024-01-30T00:50:34;9.10;;;4.45;;
43809;SDS011;29440;48.208;11.162;2024-01-30T00:53:00;7.97;;;4.50;;
43809;SDS011;29440;48.208;11.162;2024-01-30T00:55:26;10.73;;;4.13;;
43809;SDS011;29440;48.208;11.162;2024-01-30T00:57:52;11.70;;;4.20;;
43809;SDS011;29440;48.208;11.162;2024-01-30T01:00:18;7.07;;;4.05;;
43809;SDS011;29440;48.208;11.162;2024-01-30T01:02:45;9.18;;;5.28;;
43809;SDS011;29440;48.208;11.162;2024-01-30T01:05:11;8.73;;;4.82;;
43809;SDS011;29440;48.208;11.162;2024-01-30T01:07:37;11.23;;;4.97;;
43809;SDS011;29440;48.208;11.162;2024-01-30T01:10:02;9.68;;;4.70;;
43809;SDS011;29440;48.208;11.162;2024-01-30T01:12:28;8.30;;;4.97;;
43809;SDS011;29440;48.208;11.162;2024-01-30T01:14:54;9.82;;;4.55;;
43809;SDS011;29440;48.208;11.162;2024-01-30T01:17:20;9.10;;;4.63;;
43809;SDS011;29440;48.208;11.162;2024-01-30T01:19:46;6.38;;;4.15;;
43809;SDS011;29440;48.208;11.162;2024-01-30T01:22:11;9.18;;;4.70;;
43809;SDS011;29440;48.208;11.162;2024-01-30T01:24:37;7.75;;;4.15;;
43809;SDS011;29440;48.208;11.162;2024-01-30T01:27:03;8.82;;;4.07;;
43809;SDS011;29440;48.208;11.162;2024-01-30T01:29:30;9.13;;;4.68;;
43809;SDS011;29440;48.208;11.162;2024-01-30T01:31:57;9.15;;;4.38;;
43809;SDS011;29440;48.208;11.162;2024-01-30T01:34:23;11.70;;;4.47;;
43809;SDS011;29440;48.208;11.162;2024-01-30T01:36:49;8.93;;;4.13;;
43809;SDS011;29440;48.208;11.162;2024-01-30T01:39:16;7.70;;;4.53;;
43809;SDS011;29440;48.208;11.162;2024-01-30T01:41:42;7.82;;;4.13;;
43809;SDS011;29440;48.208;11.162;2024-01-30T01:44:08;10.23;;;4.28;;
43809;SDS011;29440;48.208;11.162;2024-01-30T01:46:34;8.55;;;4.28;;
43809;SDS011;29440;48.208;11.162;2024-01-30T01:49:00;8.20;;;4.53;;
43809;SDS011;29440;48.208;11.162;2024-01-30T01:51:27;8.52;;;4.03;;
43809;SDS011;29440;48.208;11.162;2024-01-30T01:53:56;8.25;;;4.18;;
43809;SDS011;29440;48.208;11.162;2024-01-30T01:56:23;10.15;;;4.53;;
43809;SDS011;29440;48.208;11.162;2024-01-30T01:58:50;7.50;;;3.40;;
43809;SDS011;29440;48.208;11.162;2024-01-30T02:01:19;8.88;;;3.72;;
43809;SDS011;29440;48.208;11.162;2024-01-30T02:03:46;6.25;;;3.38;;
43809;SDS011;29440;48.208;11.162;2024-01-30T02:16:19;8.82;;;4.05;;
43809;SDS011;29440;48.208;11.162;2024-01-30T02:18:44;10.00;;;3.47;;
43809;SDS011;29440;48.208;11.162;2024-01-30T02:21:14;8.55;;;3.83;;
43809;SDS011;29440;48.208;11.162;2024-01-30T02:23:41;8.43;;;3.50;;
43809;SDS011;29440;48.208;11.162;2024-01-30T02:26:09;8.05;;;3.72;;
43809;SDS011;29440;48.208;11.162;2024-01-30T02:28:38;9.60;;;3.88;;
43809;SDS011;29440;48.208;11.162;2024-01-30T02:31:04;7.82;;;4.10;;
43809;SDS011;29440;48.208;11.162;2024-01-30T02:33:30;9.55;;;3.75;;
43809;SDS011;29440;48.208;11.162;2024-01-30T02:35:56;7.30;;;3.70;;
43809;SDS011;29440;48.208;11.162;2024-01-30T02:38:22;5.90;;;3.33;;
43809;SDS011;29440;48.208;11.162;2024-01-30T02:40:48;6.70;;;3.17;;
43809;SDS011;29440;48.208;11.162;2024-01-30T02:43:15;6.75;;;3.10;;
43809;SDS011;29440;48.208;11.162;2024-01-30T02:45:41;6.80;;;3.28;;
43809;SDS011;29440;48.208;11.162;2024-01-30T02:48:07;6.70;;;2.90;;
43809;SDS011;29440;48.208;11.162;2024-01-30T02:50:33;5.88;;;3.10;;
43809;SDS011;29440;48.208;11.162;2024-01-30T02:52:59;6.63;;;3.17;;
43809;SDS011;29440;48.208;11.162;2024-01-30T02:55:25;7.57;;;3.47;;
43809;SDS011;29440;48.208;11.162;2024-01-30T02:57:51;6.72;;;3.17;;
43809;SDS011;29440;48.208;11.162;2024-01-30T03:00:17;7.88;;;3.38;;
43809;SDS011;29440;48.208;11.162;2024-01-30T03:02:44;7.20;;;3.15;;
43809;SDS011;29440;48.208;11.162;2024-01-30T03:05:10;7.50;;;3.50;;
43809;SDS011;29440;48.208;11.162;2024-01-30T03:07:36;5.85;;;3.70;;
43809;SDS011;29440;48.208;11.162;2024-01-30T03:10:03;8.52;;;3.50;;
43809;SDS011;29440;48.208;11.162;2024-01-30T03:12:30;6.97;;;3.03;;
43809;SDS011;29440;48.208;11.162;2024-01-30T03:14:56;8.90;;;4.10;;
43809;SDS011;29440;48.208;11.162;2024-01-30T03:17:22;8.77;;;3.80;;
43809;SDS011;29440;48.208;11.162;2024-01-30T03:19:49;6.97;;;2.88;;
43809;SDS011;29440;48.208;11.162;2024-01-30T03:22:15;8.23;;;3.47;;
43809;SDS011;29440;48.208;11.162;2024-01-30T03:24:41;6.43;;;3.60;;
43809;SDS011;29440;48.208;11.162;2024-01-30T03:27:06;5.82;;;2.65;;
43809;SDS011;29440;48.208;11.162;2024-01-30T03:29:32;9.70;;;3.67;;
43809;SDS011;29440;48.208;11.162;2024-01-30T03:31:58;7.35;;;3.08;;
43809;SDS011;29440;48.208;11.162;2024-01-30T03:34:23;5.95;;;3.20;;
43809;SDS011;29440;48.208;11.162;2024-01-30T03:36:49;5.40;;;2.63;;
43809;SDS011;29440;48.208;11.162;2024-01-30T03:39:15;8.73;;;3.30;;
43809;SDS011;29440;48.208;11.162;2024-01-30T03:41:42;9.82;;;3.13;;
43809;SDS011;29440;48.208;11.162;2024-01-30T03:44:09;6.78;;;3.00;;
43809;SDS011;29440;48.208;11.162;2024-01-30T03:46:35;8.70;;;2.92;;
43809;SDS011;29440;48.208;11.162;2024-01-30T03:49:00;6.07;;;3.00;;
43809;SDS011;29440;48.208;11.162;2024-01-30T03:51:26;6.47;;;3.50;;
43809;SDS011;29440;48.208;11.162;2024-01-30T03:53:51;6.45;;;3.03;;
43809;SDS011;29440;48.208;11.162;2024-01-30T03:56:17;5.75;;;3.50;;
43809;SDS011;29440;48.208;11.162;2024-01-30T03:58:43;5.32;;;2.60;;
43809;SDS011;29440;48.208;11.162;2024-01-30T04:01:12;6.90;;;3.10;;
43809;SDS011;29440;48.208;11.162;2024-01-30T04:03:39;8.32;;;3.05;;
43809;SDS011;29440;48.208;11.162;2024-01-30T04:06:05;6.32;;;3.25;;
43809;SDS011;29440;48.208;11.162;2024-01-30T04:08:31;6.97;;;3.20;;
43809;SDS011;29440;48.208;11.162;2024-01-30T04:10:57;4.55;;;2.95;;
43809;SDS011;29440;48.208;11.162;2024-01-30T04:13:23;7.20;;;3.03;;
43809;SDS011;29440;48.208;11.162;2024-01-30T04:15:48;7.43;;;3.13;;
43809;SDS011;29440;48.208;11.162;2024-01-30T04:18:14;4.88;;;2.85;;
43809;SDS011;29440;48.208;11.162;2024-01-30T04:20:39;6.88;;;3.10;;
43809;SDS011;29440;48.208;11.162;2024-01-30T04:23:05;7.72;;;3.00;;
43809;SDS011;29440;48.208;11.162;2024-01-30T04:25:31;5.55;;;2.72;;
43809;SDS011;29440;48.208;11.162;2024-01-30T04:27:57;7.32;;;3.05;;
43809;SDS011;29440;48.208;11.162;2024-01-30T04:30:23;5.57;;;2.40;;
43809;SDS011;29440;48.208;11.162;2024-01-30T04:32:48;7.80;;;3.20;;
43809;SDS011;29440;48.208;11.162;2024-01-30T04:35:14;7.55;;;2.95;;
43809;SDS011;29440;48.208;11.162;2024-01-30T04:37:39;7.40;;;2.67;;
43809;SDS011;29440;48.208;11.162;2024-01-30T04:40:05;6.35;;;2.67;;
43809;SDS011;29440;48.208;11.162;2024-01-30T04:42:31;5.22;;;2.83;;
43809;SDS011;29440;48.208;11.162;2024-01-30T04:44:57;6.53;;;2.95;;
43809;SDS011;29440;48.208;11.162;2024-01-30T04:47:23;5.10;;;2.70;;
43809;SDS011;29440;48.208;11.162;2024-01-30T04:49:48;5.50;;;2.70;;
43809;SDS011;29440;48.208;11.162;2024-01-30T04:52:15;4.85;;;2.70;;
43809;SDS011;29440;48.208;11.162;2024-01-30T04:54:41;6.63;;;2.80;;
43809;SDS011;29440;48.208;11.162;2024-01-30T04:57:06;5.72;;;2.50;;
43809;SDS011;29440;48.208;11.162;2024-01-30T04:59:34;4.10;;;2.75;;
43809;SDS011;29440;48.208;11.162;2024-01-30T05:02:01;5.07;;;2.50;;
43809;SDS011;29440;48.208;11.162;2024-01-30T05:04:27;5.90;;;2.70;;
43809;SDS011;29440;48.208;11.162;2024-01-30T05:06:53;7.03;;;2.33;;
43809;SDS011;29440;48.208;11.162;2024-01-30T05:09:19;3.63;;;2.30;;
43809;SDS011;29440;48.208;11.162;2024-01-30T05:11:45;6.50;;;2.70;;
43809;SDS011;29440;48.208;11.162;2024-01-30T05:14:10;6.05;;;2.65;;
43809;SDS011;29440;48.208;11.162;2024-01-30T05:16:36;6.95;;;3.05;;
43809;SDS011;29440;48.208;11.162;2024-01-30T05:19:02;5.70;;;2.60;;
43809;SDS011;29440;48.208;11.162;2024-01-30T05:21:28;3.92;;;2.22;;
43809;SDS011;29440;48.208;11.162;2024-01-30T05:23:55;8.32;;;2.60;;
43809;SDS011;29440;48.208;11.162;2024-01-30T05:26:20;5.60;;;2.50;;
43809;SDS011;29440;48.208;11.162;2024-01-30T05:28:48;5.70;;;2.28;;
43809;SDS011;29440;48.208;11.162;2024-01-30T05:31:13;7.75;;;2.80;;
43809;SDS011;29440;48.208;11.162;2024-01-30T05:33:40;4.90;;;2.55;;
43809;SDS011;29440;48.208;11.162;2024-01-30T05:36:05;6.22;;;2.38;;
43809;SDS011;29440;48.208;11.162;2024-01-30T05:38:31;7.10;;;2.88;;
43809;SDS011;29440;48.208;11.162;2024-01-30T05:40:57;5.55;;;2.97;;
43809;SDS011;29440;48.208;11.162;2024-01-30T05:43:23;6.95;;;2.97;;
43809;SDS011;29440;48.208;11.162;2024-01-30T05:45:51;6.80;;;2.85;;
43809;SDS011;29440;48.208;11.162;2024-01-30T05:48:17;6.30;;;2.90;;
43809;SDS011;29440;48.208;11.162;2024-01-30T05:50:43;4.38;;;2.35;;
43809;SDS011;29440;48.208;11.162;2024-01-30T05:53:17;5.55;;;2.72;;
43809;SDS011;29440;48.208;11.162;2024-01-30T05:55:43;7.45;;;3.03;;
43809;SDS011;29440;48.208;11.162;2024-01-30T05:58:08;5.30;;;2.88;;
43809;SDS011;29440;48.208;11.162;2024-01-30T06:00:43;7.30;;;2.58;;
43809;SDS011;29440;48.208;11.162;2024-01-30T06:03:08;3.75;;;2.08;;
43809;SDS011;29440;48.208;11.162;2024-01-30T06:05:34;6.22;;;2.80;;
43809;SDS011;29440;48.208;11.162;2024-01-30T06:08:00;8.50;;;2.97;;
43809;SDS011;29440;48.208;11.162;2024-01-30T06:10:25;6.88;;;2.65;;
43809;SDS011;29440;48.208;11.162;2024-01-30T06:12:51;6.18;;;3.00;;
43809;SDS011;29440;48.208;11.162;2024-01-30T06:15:16;5.72;;;2.60;;
43809;SDS011;29440;48.208;11.162;2024-01-30T06:17:42;6.53;;;2.33;;
43809;SDS011;29440;48.208;11.162;2024-01-30T06:20:07;7.05;;;2.95;;
43809;SDS011;29440;48.208;11.162;2024-01-30T06:22:33;7.05;;;3.58;;
43809;SDS011;29440;48.208;11.162;2024-01-30T06:24:59;8.88;;;3.95;;
43809;SDS011;29440;48.208;11.162;2024-01-30T06:27:24;7.47;;;3.70;;
43809;SDS011;29440;48.208;11.162;2024-01-30T06:29:50;7.43;;;3.50;;
43809;SDS011;29440;48.208;11.162;2024-01-30T06:32:16;8.57;;;3.90;;
43809;SDS011;29440;48.208;11.162;2024-01-30T06:34:41;8.05;;;2.88;;
43809;SDS011;29440;48.208;11.162;2024-01-30T06:37:09;7.55;;;3.10;;
43809;SDS011;29440;48.208;11.162;2024-01-30T06:39:35;4.28;;;2.22;;
43809;SDS011;29440;48.208;11.162;2024-01-30T06:42:00;6.07;;;2.60;;
43809;SDS011;29440;48.208;11.162;2024-01-30T06:44:26;5.22;;;2.38;;
43809;SDS011;29440;48.208;11.162;2024-01-30T06:46:51;8.23;;;2.67;;
43809;SDS011;29440;48.208;11.162;2024-01-30T06:49:17;5.22;;;2.72;;
43809;SDS011;29440;48.208;11.162;2024-01-30T06:51:43;6.03;;;2.50;;
43809;SDS011;29440;48.208;11.162;2024-01-30T06:54:08;4.93;;;2.08;;
43809;SDS011;29440;48.208;11.162;2024-01-30T06:56:34;5.25;;;2.15;;
43809;SDS011;29440;48.208;11.162;2024-01-30T06:59:00;4.90;;;2.05;;
43809;SDS011;29440;48.208;11.162;2024-01-30T07:01:29;6.93;;;3.10;;
43809;SDS011;29440;48.208;11.162;2024-01-30T07:03:55;5.45;;;2.38;;
43809;SDS011;29440;48.208;11.162;2024-01-30T07:06:21;7.53;;;2.50;;
43809;SDS011;29440;48.208;11.162;2024-01-30T07:08:49;6.18;;;2.80;;
43809;SDS011;29440;48.208;11.162;2024-01-30T07:11:18;5.05;;;2.67;;
43809;SDS011;29440;48.208;11.162;2024-01-30T07:13:46;4.95;;;2.60;;
43809;SDS011;29440;48.208;11.162;2024-01-30T07:16:12;3.97;;;2.53;;
43809;SDS011;29440;48.208;11.162;2024-01-30T07:18:38;5.45;;;2.55;;
43809;SDS011;29440;48.208;11.162;2024-01-30T07:21:04;5.78;;;2.85;;
43809;SDS011;29440;48.208;11.162;2024-01-30T07:23:30;4.68;;;2.58;;
43809;SDS011;29440;48.208;11.162;2024-01-30T07:25:57;5.18;;;2.85;;
43809;SDS011;29440;48.208;11.162;2024-01-30T07:28:23;6.80;;;2.67;;
43809;SDS011;29440;48.208;11.162;2024-01-30T07:30:48;8.40;;;2.55;;
43809;SDS011;29440;48.208;11.162;2024-01-30T07:33:15;6.95;;;3.13;;
43809;SDS011;29440;48.208;11.162;2024-01-30T07:35:41;6.72;;;2.97;;
43809;SDS011;29440;48.208;11.162;2024-01-30T07:38:07;4.10;;;2.05;;
43809;SDS011;29440;48.208;11.162;2024-01-30T07:40:33;4.07;;;2.35;;
43809;SDS011;29440;48.208;11.162;2024-01-30T07:42:58;5.05;;;2.70;;
43809;SDS011;29440;48.208;11.162;2024-01-30T07:45:25;5.53;;;2.92;;
43809;SDS011;29440;48.208;11.162;2024-01-30T07:47:52;7.28;;;2.70;;
43809;SDS011;29440;48.208;11.162;2024-01-30T07:50:18;4.72;;;2.78;;
43809;SDS011;29440;48.208;11.162;2024-01-30T07:52:44;6.28;;;2.58;;
43809;SDS011;29440;48.208;11.162;2024-01-30T07:55:09;5.50;;;2.80;;
43809;SDS011;29440;48.208;11.162;2024-01-30T07:57:35;7.60;;;3.55;;
43809;SDS011;29440;48.208;11.162;2024-01-30T08:00:03;6.35;;;2.95;;
43809;SDS011;29440;48.208;11.162;2024-01-30T08:02:31;7.13;;;4.68;;
43809;SDS011;29440;48.208;11.162;2024-01-30T08:04:57;4.80;;;2.45;;
43809;SDS011;29440;48.208;11.162;2024-01-30T08:07:22;4.53;;;2.88;;
43809;SDS011;29440;48.208;11.162;2024-01-30T08:09:48;6.68;;;3.25;;
43809;SDS011;29440;48.208;11.162;2024-01-30T08:12:14;5.60;;;2.65;;
43809;SDS011;29440;48.208;11.162;2024-01-30T08:14:40;6.00;;;2.75;;
43809;SDS011;29440;48.208;11.162;2024-01-30T08:17:06;5.00;;;2.70;;
43809;SDS011;29440;48.208;11.162;2024-01-30T08:19:32;7.22;;;2.58;;
43809;SDS011;29440;48.208;11.162;2024-01-30T08:21:58;6.47;;;3.50;;
43809;SDS011;29440;48.208;11.162;2024-01-30T08:24:24;4.15;;;2.80;;
43809;SDS011;29440;48.208;11.162;2024-01-30T08:26:49;8.90;;;3.13;;
43809;SDS011;29440;48.208;11.162;2024-01-30T08:29:15;5.35;;;3.25;;
43809;SDS011;29440;48.208;11.162;2024-01-30T08:31:40;4.50;;;2.67;;
43809;SDS011;29440;48.208;11.162;2024-01-30T08:34:06;6.03;;;3.10;;
43809;SDS011;29440;48.208;11.162;2024-01-30T08:36:31;4.20;;;2.40;;
43809;SDS011;29440;48.208;11.162;2024-01-30T08:38:57;3.65;;;2.60;;
43809;SDS011;29440;48.208;11.162;2024-01-30T08:41:23;6.55;;;1.98;;
43809;SDS011;29440;48.208;11.162;2024-01-30T08:43:49;5.18;;;2.10;;
43809;SDS011;29440;48.208;11.162;2024-01-30T08:46:18;4.65;;;2.13;;
43809;SDS011;29440;48.208;11.162;2024-01-30T08:48:44;3.45;;;1.80;;
43809;SDS011;29440;48.208;11.162;2024-01-30T08:51:10;3.38;;;1.73;;
43809;SDS011;29440;48.208;11.162;2024-01-30T08:53:36;4.57;;;1.38;;
43809;SDS011;29440;48.208;11.162;2024-01-30T08:56:03;2.65;;;1.70;;
43809;SDS011;29440;48.208;11.162;2024-01-30T08:58:29;6.07;;;2.47;;
43809;SDS011;29440;48.208;11.162;2024-01-30T09:00:56;5.15;;;2.15;;
43809;SDS011;29440;48.208;11.162;2024-01-30T09:03:21;5.13;;;2.40;;
43809;SDS011;29440;48.208;11.162;2024-01-30T09:05:47;6.70;;;2.70;;
43809;SDS011;29440;48.208;11.162;2024-01-30T09:08:12;52.13;;;5.07;;
43809;SDS011;29440;48.208;11.162;2024-01-30T09:10:38;27.52;;;2.97;;
43809;SDS011;29440;48.208;11.162;2024-01-30T09:13:04;29.80;;;3.60;;
43809;SDS011;29440;48.208;11.162;2024-01-30T09:15:29;15.27;;;2.53;;
43809;SDS011;29440;48.208;11.162;2024-01-30T09:17:55;6.57;;;1.50;;
43809;SDS011;29440;48.208;11.162;2024-01-30T09:20:21;5.03;;;1.35;;
43809;SDS011;29440;48.208;11.162;2024-01-30T09:22:48;1.60;;;0.98;;
43809;SDS011;29440;48.208;11.162;2024-01-30T09:25:14;6.60;;;2.10;;
43809;SDS011;29440;48.208;11.162;2024-01-30T09:27:40;2.50;;;1.08;;
43809;SDS011;29440;48.208;11.162;2024-01-30T09:30:06;1.77;;;0.82;;
43809;SDS011;29440;48.208;11.162;2024-01-30T09:32:32;1.92;;;0.80;;
43809;SDS011;29440;48.208;11.162;2024-01-30T09:34:58;4.00;;;0.82;;
43809;SDS011;29440;48.208;11.162;2024-01-30T09:37:23;1.73;;;1.45;;
43809;SDS011;29440;48.208;11.162;2024-01-30T09:39:49;2.75;;;1.85;;
43809;SDS011;29440;48.208;11.162;2024-01-30T09:42:28;4.43;;;1.50;;
43809;SDS011;29440;48.208;11.162;2024-01-30T09:45:00;1.58;;;0.90;;
43809;SDS011;29440;48.208;11.162;2024-01-30T09:47:30;2.88;;;1.40;;
43809;SDS011;29440;48.208;11.162;2024-01-30T09:50:03;1.90;;;0.90;;
43809;SDS011;29440;48.208;11.162;2024-01-30T09:52:31;1.95;;;0.98;;
43809;SDS011;29440;48.208;11.162;2024-01-30T09:54:56;1.60;;;1.02;;
43809;SDS011;29440;48.208;11.162;2024-01-30T09:57:25;5.10;;;0.88;;
43809;SDS011;29440;48.208;11.162;2024-01-30T09:59:51;1.50;;;0.70;;
43809;SDS011;29440;48.208;11.162;2024-01-30T10:02:19;2.28;;;0.88;;
43809;SDS011;29440;48.208;11.162;2024-01-30T10:04:48;2.13;;;0.70;;
43809;SDS011;29440;48.208;11.162;2024-01-30T10:07:18;2.40;;;0.82;;
43809;SDS011;29440;48.208;11.162;2024-01-30T10:09:44;2.20;;;0.80;;
43809;SDS011;29440;48.208;11.162;2024-01-30T10:12:10;1.63;;;0.73;;
43809;SDS011;29440;48.208;11.162;2024-01-30T10:14:40;1.55;;;0.80;;
43809;SDS011;29440;48.208;11.162;2024-01-30T10:17:09;3.35;;;1.88;;
43809;SDS011;29440;48.208;11.162;2024-01-30T10:19:36;1.42;;;0.70;;
43809;SDS011;29440;48.208;11.162;2024-01-30T10:22:05;2.20;;;0.90;;
43809;SDS011;29440;48.208;11.162;2024-01-30T10:24:31;0.90;;;0.70;;
43809;SDS011;29440;48.208;11.162;2024-01-30T10:26:59;1.88;;;0.70;;
43809;SDS011;29440;48.208;11.162;2024-01-30T10:29:25;2.17;;;1.10;;
43809;SDS011;29440;48.208;11.162;2024-01-30T10:32:01;2.72;;;1.40;;
43809;SDS011;29440;48.208;11.162;2024-01-30T10:34:28;3.15;;;0.90;;
43809;SDS011;29440;48.208;11.162;2024-01-30T10:39:38;3.20;;;1.00;;
43809;SDS011;29440;48.208;11.162;2024-01-30T10:42:04;2.47;;;1.25;;
43809;SDS011;29440;48.208;11.162;2024-01-30T10:44:42;2.17;;;1.10;;
43809;SDS011;29440;48.208;11.162;2024-01-30T10:47:18;3.75;;;1.10;;
43809;SDS011;29440;48.208;11.162;2024-01-30T10:49:55;3.55;;;1.08;;
43809;SDS011;29440;48.208;11.162;2024-01-30T10:52:22;2.90;;;1.17;;
43809;SDS011;29440;48.208;11.162;2024-01-30T10:54:53;2.05;;;0.90;;
43809;SDS011;29440;48.208;11.162;2024-01-30T10:57:24;3.60;;;1.08;;
43809;SDS011;29440;48.208;11.162;2024-01-30T10:59:52;2.97;;;1.23;;
43809;SDS011;29440;48.208;11.162;2024-01-30T11:02:21;2.47;;;1.23;;
43809;SDS011;29440;48.208;11.162;2024-01-30T11:04:49;3.58;;;1.00;;
43809;SDS011;29440;48.208;11.162;2024-01-30T11:07:15;5.13;;;3.22;;
43809;SDS011;29440;48.208;11.162;2024-01-30T11:09:48;5.75;;;4.47;;
43809;SDS011;29440;48.208;11.162;2024-01-30T11:12:14;4.25;;;1.42;;
43809;SDS011;29440;48.208;11.162;2024-01-30T11:14:40;5.07;;;1.38;;
43809;SDS011;29440;48.208;11.162;2024-01-30T11:17:05;7.78;;;1.38;;
43809;SDS011;29440;48.208;11.162;2024-01-30T11:19:31;4.80;;;1.30;;
43809;SDS011;29440;48.208;11.162;2024-01-30T11:21:58;4.38;;;1.20;;
43809;SDS011;29440;48.208;11.162;2024-01-30T11:24:25;3.42;;;1.30;;
43809;SDS011;29440;48.208;11.162;2024-01-30T11:26:58;2.28;;;1.20;;
43809;SDS011;29440;48.208;11.162;2024-01-30T11:29:27;3.63;;;1.08;;
43809;SDS011;29440;48.208;11.162;2024-01-30T11:31:54;2.20;;;1.27;;
43809;SDS011;29440;48.208;11.162;2024-01-30T11:34:21;3.85;;;2.78;;
43809;SDS011;29440;48.208;11.162;2024-01-30T11:36:56;3.72;;;1.15;;
43809;SDS011;29440;48.208;11.162;2024-01-30T11:39:29;4.57;;;1.20;;
43809;SDS011;29440;48.208;11.162;2024-01-30T11:41:55;2.25;;;1.35;;
43809;SDS011;29440;48.208;11.162;2024-01-30T11:44:22;5.00;;;1.30;;
43809;SDS011;29440;48.208;11.162;2024-01-30T11:46:48;3.22;;;1.25;;
43809;SDS011;29440;48.208;11.162;2024-01-30T11:49:14;3.38;;;1.30;;
43809;SDS011;29440;48.208;11.162;2024-01-30T11:51:40;5.28;;;1.10;;
43809;SDS011;29440;48.208;11.162;2024-01-30T11:54:07;2.38;;;1.23;;
43809;SDS011;29440;48.208;11.162;2024-01-30T11:56:32;3.80;;;1.08;;
43809;SDS011;29440;48.208;11.162;2024-01-30T11:58:58;2.72;;;1.20;;
43809;SDS011;29440;48.208;11.162;2024-01-30T12:01:25;5.75;;;1.10;;
43809;SDS011;29440;48.208;11.162;2024-01-30T12:03:54;1.80;;;0.98;;
43809;SDS011;29440;48.208;11.162;2024-01-30T12:06:22;2.17;;;1.02;;
43809;SDS011;29440;48.208;11.162;2024-01-30T12:09:01;2.33;;;0.98;;
43809;SDS011;29440;48.208;11.162;2024-01-30T12:11:34;3.63;;;1.20;;
43809;SDS011;29440;48.208;11.162;2024-01-30T12:14:11;2.72;;;1.55;;
43809;SDS011;29440;48.208;11.162;2024-01-30T12:16:37;1.42;;;0.98;;
43809;SDS011;29440;48.208;11.162;2024-01-30T12:19:03;1.60;;;0.90;;
43809;SDS011;29440;48.208;11.162;2024-01-30T12:21:29;2.08;;;1.02;;
43809;SDS011;29440;48.208;11.162;2024-01-30T12:23:55;2.17;;;1.10;;
43809;SDS011;29440;48.208;11.162;2024-01-30T12:26:22;2.22;;;1.10;;
43809;SDS011;29440;48.208;11.162;2024-01-30T12:28:50;2.42;;;1.73;;
43809;SDS011;29440;48.208;11.162;2024-01-30T12:31:25;4.20;;;1.30;;
43809;SDS011;29440;48.208;11.162;2024-01-30T12:33:52;4.90;;;1.25;;
43809;SDS011;29440;48.208;11.162;2024-01-30T12:36:18;3.78;;;1.25;;
43809;SDS011;29440;48.208;11.162;2024-01-30T12:38:44;2.28;;;1.08;;
43809;SDS011;29440;48.208;11.162;2024-01-30T12:41:10;2.45;;;0.80;;
43809;SDS011;29440;48.208;11.162;2024-01-30T12:43:36;3.15;;;1.10;;
43809;SDS011;29440;48.208;11.162;2024-01-30T12:46:02;3.30;;;0.90;;
43809;SDS011;29440;48.208;11.162;2024-01-30T12:48:28;2.22;;;0.90;;
43809;SDS011;29440;48.208;11.162;2024-01-30T12:50:54;3.72;;;1.08;;
43809;SDS011;29440;48.208;11.162;2024-01-30T12:53:24;2.65;;;1.00;;
43809;SDS011;29440;48.208;11.162;2024-01-30T12:55:50;2.53;;;1.00;;
43809;SDS011;29440;48.208;11.162;2024-01-30T12:58:16;4.55;;;0.98;;
43809;SDS011;29440;48.208;11.162;2024-01-30T13:00:41;4.25;;;1.05;;
43809;SDS011;29440;48.208;11.162;2024-01-30T13:03:08;2.78;;;1.20;;
43809;SDS011;29440;48.208;11.162;2024-01-30T13:05:35;2.28;;;1.00;;
43809;SDS011;29440;48.208;11.162;2024-01-30T13:08:00;3.90;;;0.88;;
43809;SDS011;29440;48.208;11.162;2024-01-30T13:10:26;1.73;;;0.90;;
43809;SDS011;29440;48.208;11.162;2024-01-30T13:12:52;2.78;;;1.10;;
43809;SDS011;29440;48.208;11.162;2024-01-30T13:15:18;3.08;;;1.15;;
43809;SDS011;29440;48.208;11.162;2024-01-30T13:17:44;2.28;;;1.10;;
43809;SDS011;29440;48.208;11.162;2024-01-30T13:20:12;2.78;;;1.40;;
43809;SDS011;29440;48.208;11.162;2024-01-30T13:22:41;3.22;;;1.85;;
43809;SDS011;29440;48.208;11.162;2024-01-30T13:25:08;1.70;;;0.80;;
43809;SDS011;29440;48.208;11.162;2024-01-30T13:27:34;1.90;;;0.80;;
43809;SDS011;29440;48.208;11.162;2024-01-30T13:29:59;2.10;;;1.00;;
43809;SDS011;29440;48.208;11.162;2024-01-30T13:32:25;3.78;;;0.82;;
43809;SDS011;29440;48.208;11.162;2024-01-30T13:34:51;3.00;;;0.90;;
43809;SDS011;29440;48.208;11.162;2024-01-30T13:37:16;5.88;;;1.10;;
43809;SDS011;29440;48.208;11.162;2024-01-30T13:39:42;2.25;;;1.02;;
43809;SDS011;29440;48.208;11.162;2024-01-30T13:42:08;1.60;;;1.05;;
43809;SDS011;29440;48.208;11.162;2024-01-30T13:44:35;2.97;;;1.13;;
43809;SDS011;29440;48.208;11.162;2024-01-30T13:47:00;3.42;;;1.10;;
43809;SDS011;29440;48.208;11.162;2024-01-30T13:49:26;3.40;;;1.33;;
43809;SDS011;29440;48.208;11.162;2024-01-30T13:51:52;5.50;;;1.20;;
43809;SDS011;29440;48.208;11.162;2024-01-30T13:54:18;3.15;;;1.35;;
43809;SDS011;29440;48.208;11.162;2024-01-30T13:56:43;2.50;;;1.13;;
43809;SDS011;29440;48.208;11.162;2024-01-30T13:59:09;3.88;;;1.20;;
43809;SDS011;29440;48.208;11.162;2024-01-30T14:01:34;2.38;;;1.30;;
43809;SDS011;29440;48.208;11.162;2024-01-30T14:04:00;4.22;;;1.40;;
43809;SDS011;29440;48.208;11.162;2024-01-30T14:06:26;4.25;;;1.75;;
43809;SDS011;29440;48.208;11.162;2024-01-30T14:08:51;3.53;;;1.10;;
43809;SDS011;29440;48.208;11.162;2024-01-30T14:11:18;3.92;;;1.42;;
43809;SDS011;29440;48.208;11.162;2024-01-30T14:13:44;2.55;;;1.23;;
43809;SDS011;29440;48.208;11.162;2024-01-30T14:16:09;2.80;;;1.30;;
43809;SDS011;29440;48.208;11.162;2024-01-30T14:18:35;5.25;;;1.60;;
43809;SDS011;29440;48.208;11.162;2024-01-30T14:21:01;5.55;;;1.80;;
43809;SDS011;29440;48.208;11.162;2024-01-30T14:23:27;3.17;;;1.60;;
43809;SDS011;29440;48.208;11.162;2024-01-30T14:25:52;3.83;;;2.00;;
43809;SDS011;29440;48.208;11.162;2024-01-30T14:28:18;5.30;;;1.63;;
43809;SDS011;29440;48.208;11.162;2024-01-30T14:30:44;4.50;;;1.40;;
43809;SDS011;29440;48.208;11.162;2024-01-30T14:33:09;3.75;;;1.52;;
43809;SDS011;29440;48.208;11.162;2024-01-30T14:35:35;2.67;;;1.17;;
43809;SDS011;29440;48.208;11.162;2024-01-30T14:38:01;3.13;;;1.65;;
43809;SDS011;29440;48.208;11.162;2024-01-30T14:40:26;3.58;;;1.60;;
43809;SDS011;29440;48.208;11.162;2024-01-30T14:42:52;4.55;;;2.40;;